createdAt,value
2022-08-02T00:00:31.571Z,2.70
2022-08-02T00:01:31.669Z,2.40
2022-08-02T00:02:31.565Z,2.40
2022-08-02T00:03:31.558Z,2.30
2022-08-02T00:04:31.558Z,2.30
2022-08-02T00:05:31.565Z,2.30
2022-08-02T00:06:31.547Z,2.60
2022-08-02T00:07:31.553Z,2.50
2022-08-02T00:08:31.540Z,2.50
2022-08-02T00:09:31.536Z,2.60
2022-08-02T00:10:31.534Z,2.60
2022-08-02T00:11:31.530Z,2.40
2022-08-02T00:12:31.521Z,2.30
2022-08-02T00:13:31.516Z,2.10
2022-08-02T00:14:31.515Z,2.60
2022-08-02T00:15:31.507Z,2.40
2022-08-02T00:16:37.987Z,2.30
2022-08-02T00:17:31.501Z,2.40
2022-08-02T00:18:31.498Z,2.40
2022-08-02T00:19:31.492Z,2.10
2022-08-02T00:20:31.504Z,2.50
2022-08-02T00:21:31.482Z,2.20
2022-08-02T00:22:31.482Z,2.50
2022-08-02T00:23:31.476Z,2.40
2022-08-02T00:24:31.493Z,2.70
2022-08-02T00:25:31.466Z,2.50
2022-08-02T00:26:31.465Z,2.70
2022-08-02T00:27:31.460Z,2.70
2022-08-02T00:28:31.454Z,2.60
2022-08-02T00:29:31.450Z,2.50
2022-08-02T00:30:31.447Z,2.30
2022-08-02T00:31:31.445Z,3.20
2022-08-02T00:32:31.437Z,2.90
2022-08-02T00:34:05.673Z,2.70
2022-08-02T00:34:35.010Z,2.80
2022-08-02T00:35:31.425Z,2.90
2022-08-02T00:36:31.421Z,2.20
2022-08-02T00:37:31.416Z,2.70
2022-08-02T00:38:31.411Z,2.70
2022-08-02T00:39:34.665Z,2.50
2022-08-02T00:40:31.419Z,2.30
2022-08-02T00:41:31.400Z,2.70
2022-08-02T00:42:31.395Z,2.80
2022-08-02T00:43:31.398Z,2.60
2022-08-02T00:44:31.384Z,2.50
2022-08-02T00:46:02.229Z,2.30
2022-08-02T00:46:31.375Z,2.50
2022-08-02T00:47:31.472Z,2.40
2022-08-02T00:48:31.366Z,2.80
2022-08-02T00:49:31.435Z,2.90
2022-08-02T00:50:31.357Z,2.60
2022-08-02T00:51:31.355Z,2.50
2022-08-02T00:52:31.449Z,2.50
2022-08-02T00:53:31.346Z,2.60
2022-08-02T00:54:31.342Z,2.60
2022-08-02T00:55:31.571Z,2.60
2022-08-02T00:56:31.331Z,2.80
2022-08-02T00:57:31.377Z,2.90
2022-08-02T00:58:31.321Z,3.00
2022-08-02T00:59:31.319Z,2.90
2022-08-02T01:00:31.317Z,2.90
2022-08-02T01:01:31.340Z,2.90
2022-08-02T01:02:31.354Z,2.70
2022-08-02T01:03:31.301Z,3.00
2022-08-02T01:04:32.403Z,2.80
2022-08-02T01:05:39.029Z,2.80
2022-08-02T01:06:31.286Z,3.00
2022-08-02T01:07:31.282Z,3.00
2022-08-02T01:08:31.779Z,3.10
2022-08-02T01:09:31.276Z,3.10
2022-08-02T01:10:31.268Z,3.10
2022-08-02T01:11:31.264Z,3.00
2022-08-02T01:12:31.260Z,2.90
2022-08-02T01:13:31.256Z,3.10
2022-08-02T01:14:31.247Z,2.90
2022-08-02T01:15:35.934Z,3.30
2022-08-02T01:16:31.240Z,2.70
2022-08-02T01:17:31.236Z,3.40
2022-08-02T01:18:31.231Z,3.50
2022-08-02T01:19:31.228Z,3.00
2022-08-02T01:20:31.221Z,3.30
2022-08-02T01:21:31.220Z,3.00
2022-08-02T01:22:59.403Z,3.30
2022-08-02T01:23:31.209Z,3.00
2022-08-02T01:24:31.202Z,3.60
2022-08-02T01:25:31.200Z,3.20
2022-08-02T01:26:31.193Z,3.20
2022-08-02T01:27:31.190Z,3.20
2022-08-02T01:28:31.183Z,3.30
2022-08-02T01:29:31.178Z,3.00
2022-08-02T01:30:31.173Z,2.90
2022-08-02T01:31:31.170Z,2.90
2022-08-02T01:32:31.164Z,2.80
2022-08-02T01:33:31.161Z,3.20
2022-08-02T01:34:31.155Z,2.90
2022-08-02T01:35:50.705Z,3.20
2022-08-02T01:36:31.145Z,3.20
2022-08-02T01:37:31.141Z,2.90
2022-08-02T01:38:31.134Z,3.10
2022-08-02T01:39:32.495Z,3.00
2022-08-02T01:40:31.126Z,2.80
2022-08-02T01:41:31.122Z,3.00
2022-08-02T01:42:31.117Z,3.00
2022-08-02T01:43:31.112Z,3.30
2022-08-02T01:44:31.104Z,3.00
2022-08-02T01:45:31.101Z,2.90
2022-08-02T01:46:31.094Z,3.00
2022-08-02T01:47:31.094Z,3.10
2022-08-02T01:48:31.085Z,3.10
2022-08-02T01:49:31.225Z,2.70
2022-08-02T01:50:31.076Z,3.60
2022-08-02T01:51:34.562Z,2.90
2022-08-02T01:52:31.068Z,3.30
2022-08-02T01:53:31.063Z,3.50
2022-08-02T01:54:31.054Z,2.60
2022-08-02T01:55:35.322Z,3.20
2022-08-02T01:56:31.046Z,3.20
2022-08-02T01:57:31.041Z,3.30
2022-08-02T01:58:31.034Z,2.70
2022-08-02T01:59:31.032Z,3.10
2022-08-02T02:00:31.025Z,3.10
2022-08-02T02:01:31.058Z,2.90
2022-08-02T02:02:31.878Z,2.80
2022-08-02T02:03:31.011Z,3.20
2022-08-02T02:04:31.007Z,3.20
2022-08-02T02:05:31.002Z,3.00
2022-08-02T02:06:30.994Z,2.80
2022-08-02T02:07:30.991Z,2.80
2022-08-02T02:08:31.185Z,3.10
2022-08-02T02:09:30.979Z,3.20
2022-08-02T02:10:30.974Z,2.90
2022-08-02T02:12:14.714Z,3.20
2022-08-02T02:12:30.964Z,3.20
2022-08-02T02:13:33.677Z,3.10
2022-08-02T02:14:30.954Z,3.00
2022-08-02T02:15:30.950Z,3.20
2022-08-02T02:16:30.941Z,3.40
2022-08-02T02:17:53.160Z,2.70
2022-08-02T02:18:30.930Z,2.90
2022-08-02T02:19:30.929Z,3.10
2022-08-02T02:20:30.921Z,3.50
2022-08-02T02:21:31.384Z,2.90
2022-08-02T02:22:30.912Z,3.00
2022-08-02T02:23:35.476Z,3.20
2022-08-02T02:24:30.901Z,3.50
2022-08-02T02:25:35.773Z,3.30
2022-08-02T02:26:31.729Z,3.60
2022-08-02T02:27:30.887Z,2.80
2022-08-02T02:28:30.881Z,2.80
2022-08-02T02:29:30.876Z,3.10
2022-08-02T02:30:30.868Z,3.30
2022-08-02T02:31:30.868Z,3.30
2022-08-02T02:32:30.860Z,3.40
2022-08-02T02:33:30.856Z,3.20
2022-08-02T02:34:30.847Z,3.40
2022-08-02T02:35:30.846Z,3.80
2022-08-02T02:36:30.847Z,3.20
2022-08-02T02:37:30.835Z,3.60
2022-08-02T02:38:30.830Z,3.50
2022-08-02T02:39:30.875Z,3.10
2022-08-02T02:40:30.818Z,3.40
2022-08-02T02:41:30.814Z,2.90
2022-08-02T02:42:30.807Z,3.30
2022-08-02T02:43:30.803Z,2.90
2022-08-02T02:44:30.795Z,3.20
2022-08-02T02:45:30.794Z,3.50
2022-08-02T02:46:30.801Z,3.90
2022-08-02T02:47:41.541Z,3.30
2022-08-02T02:48:30.777Z,2.90
2022-08-02T02:49:30.884Z,3.10
2022-08-02T02:50:30.764Z,2.80
2022-08-02T02:51:30.764Z,3.50
2022-08-02T02:52:30.756Z,3.20
2022-08-02T02:53:30.755Z,3.50
2022-08-02T02:54:34.068Z,3.10
2022-08-02T02:55:30.742Z,3.20
2022-08-02T02:56:30.733Z,3.80
2022-08-02T02:57:30.732Z,3.20
2022-08-02T02:58:30.722Z,4.20
2022-08-02T02:59:30.720Z,3.20
2022-08-02T03:00:30.713Z,3.60
2022-08-02T03:01:55.780Z,3.70
2022-08-02T03:02:30.700Z,3.70
2022-08-02T03:03:30.697Z,3.70
2022-08-02T03:04:36.142Z,3.70
2022-08-02T03:05:30.685Z,3.30
2022-08-02T03:06:30.678Z,3.90
2022-08-02T03:07:30.674Z,3.90
2022-08-02T03:08:30.667Z,3.90
2022-08-02T03:09:30.664Z,4.00
2022-08-02T03:10:30.659Z,4.40
2022-08-02T03:11:30.652Z,4.10
2022-08-02T03:12:32.354Z,3.50
2022-08-02T03:13:33.035Z,3.80
2022-08-02T03:14:30.634Z,4.00
2022-08-02T03:15:30.630Z,3.50
2022-08-02T03:16:30.625Z,3.30
2022-08-02T03:17:30.620Z,3.70
2022-08-02T03:18:30.612Z,3.50
2022-08-02T03:19:33.213Z,3.70
2022-08-02T03:20:30.601Z,4.00
2022-08-02T03:21:30.597Z,3.80
2022-08-02T03:22:30.590Z,4.20
2022-08-02T03:23:30.585Z,3.40
2022-08-02T03:24:30.580Z,3.50
2022-08-02T03:25:30.576Z,3.60
2022-08-02T03:26:30.567Z,3.30
2022-08-02T03:27:30.566Z,3.20
2022-08-02T03:28:30.558Z,3.30
2022-08-02T03:29:34.456Z,3.40
2022-08-02T03:30:30.545Z,3.80
2022-08-02T03:31:32.802Z,3.70
2022-08-02T03:32:30.535Z,3.70
2022-08-02T03:33:30.530Z,3.50
2022-08-02T03:34:30.525Z,3.80
2022-08-02T03:35:30.519Z,4.10
2022-08-02T03:36:30.513Z,3.30
2022-08-02T03:37:30.508Z,3.80
2022-08-02T03:38:30.502Z,3.40
2022-08-02T03:39:30.499Z,3.60
2022-08-02T03:40:30.491Z,3.70
2022-08-02T03:41:30.487Z,3.60
2022-08-02T03:42:30.481Z,3.00
2022-08-02T03:43:30.475Z,3.60
2022-08-02T03:44:30.468Z,3.50
2022-08-02T03:45:30.464Z,3.40
2022-08-02T03:46:30.456Z,3.90
2022-08-02T03:47:30.452Z,3.40
2022-08-02T03:48:34.618Z,3.80
2022-08-02T03:49:30.524Z,3.50
2022-08-02T03:50:30.434Z,3.70
2022-08-02T03:51:30.431Z,3.10
2022-08-02T03:52:30.423Z,3.50
2022-08-02T03:53:30.419Z,3.60
2022-08-02T03:54:34.417Z,3.60
2022-08-02T03:55:30.408Z,3.40
2022-08-02T03:56:30.406Z,3.40
2022-08-02T03:57:30.396Z,3.50
2022-08-02T03:58:30.390Z,3.40
2022-08-02T03:59:31.976Z,4.00
2022-08-02T04:01:30.393Z,3.70
2022-08-02T04:02:30.374Z,3.40
2022-08-02T04:03:30.363Z,3.60
2022-08-02T04:04:30.358Z,3.80
2022-08-02T04:05:30.349Z,4.20
2022-08-02T04:06:30.348Z,3.80
2022-08-02T04:08:32.527Z,3.20
2022-08-02T04:08:35.615Z,3.30
2022-08-02T04:09:30.329Z,3.80
2022-08-02T04:10:30.324Z,3.20
2022-08-02T04:11:30.322Z,3.70
2022-08-02T04:12:30.316Z,3.60
2022-08-02T04:13:34.493Z,3.00
2022-08-02T04:14:30.302Z,3.90
2022-08-02T04:15:30.296Z,3.70
2022-08-02T04:16:30.293Z,3.70
2022-08-02T04:17:30.282Z,3.70
2022-08-02T04:18:30.280Z,3.60
2022-08-02T04:19:30.272Z,3.20
2022-08-02T04:20:30.273Z,4.00
2022-08-02T04:21:48.593Z,3.60
2022-08-02T04:22:30.257Z,3.70
2022-08-02T04:23:30.251Z,3.70
2022-08-02T04:24:30.245Z,3.80
2022-08-02T04:25:35.301Z,3.50
2022-08-02T04:26:30.234Z,3.50
2022-08-02T04:27:50.046Z,3.90
2022-08-02T04:28:30.224Z,3.70
2022-08-02T04:29:30.214Z,3.50
2022-08-02T04:30:30.211Z,3.50
2022-08-02T04:31:30.205Z,3.80
2022-08-02T04:32:30.200Z,3.70
2022-08-02T04:33:30.193Z,3.10
2022-08-02T04:34:30.189Z,3.70
2022-08-02T04:35:30.183Z,3.80
2022-08-02T04:36:30.894Z,3.80
2022-08-02T04:37:30.170Z,3.40
2022-08-02T04:38:30.166Z,3.50
2022-08-02T04:39:30.158Z,3.50
2022-08-02T04:40:30.155Z,3.60
2022-08-02T04:41:30.146Z,3.70
2022-08-02T04:42:30.144Z,3.70
2022-08-02T04:43:30.139Z,3.50
2022-08-02T04:44:30.131Z,3.70
2022-08-02T04:45:30.126Z,3.30
2022-08-02T04:46:30.119Z,3.50
2022-08-02T04:48:02.549Z,3.30
2022-08-02T04:48:30.109Z,3.40
2022-08-02T04:49:30.162Z,3.30
2022-08-02T04:50:30.097Z,3.50
2022-08-02T04:51:37.919Z,3.40
2022-08-02T04:52:30.090Z,3.00
2022-08-02T04:53:30.086Z,2.80
2022-08-02T04:54:30.081Z,3.40
2022-08-02T04:55:30.288Z,2.90
2022-08-02T04:56:30.074Z,2.80
2022-08-02T04:57:30.072Z,2.80
2022-08-02T04:58:44.090Z,2.60
2022-08-02T04:59:30.066Z,2.80
2022-08-02T05:00:30.100Z,3.00
2022-08-02T05:01:30.061Z,2.90
2022-08-02T05:02:30.058Z,2.80
2022-08-02T05:03:30.059Z,2.80
2022-08-02T05:04:30.057Z,2.90
2022-08-02T05:05:30.056Z,2.50
2022-08-02T05:06:30.058Z,2.50
2022-08-02T05:07:30.053Z,3.00
2022-08-02T05:08:30.051Z,2.90
2022-08-02T05:09:30.051Z,3.00
2022-08-02T05:10:30.053Z,3.20
2022-08-02T05:11:36.129Z,3.10
2022-08-02T05:12:30.050Z,2.90
2022-08-02T05:13:30.047Z,3.30
2022-08-02T05:14:30.048Z,3.50
2022-08-02T05:15:33.247Z,2.90
2022-08-02T05:16:30.885Z,2.80
2022-08-02T05:17:30.052Z,2.90
2022-08-02T05:18:30.046Z,3.10
2022-08-02T05:19:30.045Z,3.50
2022-08-02T05:20:30.047Z,3.20
2022-08-02T05:21:30.042Z,3.10
2022-08-02T05:22:30.041Z,3.00
2022-08-02T05:23:30.040Z,3.50
2022-08-02T05:24:30.038Z,3.20
2022-08-02T05:25:30.038Z,3.30
2022-08-02T05:26:30.042Z,2.80
2022-08-02T05:27:30.037Z,3.30
2022-08-02T05:28:30.034Z,3.00
2022-08-02T05:29:30.034Z,3.20
2022-08-02T05:30:30.029Z,3.50
2022-08-02T05:31:30.031Z,2.90
2022-08-02T05:32:30.027Z,2.80
2022-08-02T05:33:30.027Z,3.30
2022-08-02T05:34:30.027Z,3.40
2022-08-02T05:35:30.023Z,3.30
2022-08-02T05:36:30.019Z,2.60
2022-08-02T05:37:32.011Z,2.90
2022-08-02T05:38:30.022Z,2.90
2022-08-02T05:39:31.744Z,3.10
2022-08-02T05:40:30.014Z,3.20
2022-08-02T05:41:30.017Z,3.10
2022-08-02T05:42:30.010Z,2.80
2022-08-02T05:43:30.010Z,2.50
2022-08-02T05:44:30.006Z,2.70
2022-08-02T05:45:30.006Z,3.20
2022-08-02T05:46:30.003Z,3.30
2022-08-02T05:47:30.004Z,3.40
2022-08-02T05:48:32.186Z,3.00
2022-08-02T05:49:30.030Z,2.90
2022-08-02T05:50:30.000Z,3.50
2022-08-02T05:51:29.996Z,2.90
2022-08-02T05:52:29.993Z,3.10
2022-08-02T05:53:29.992Z,3.10
2022-08-02T05:54:29.992Z,3.30
2022-08-02T05:55:29.990Z,2.90
2022-08-02T05:56:29.988Z,2.90
2022-08-02T05:57:29.987Z,3.10
2022-08-02T05:58:29.986Z,2.70
2022-08-02T05:59:29.983Z,2.90
2022-08-02T06:00:29.983Z,2.80
2022-08-02T06:01:30.100Z,3.30
2022-08-02T06:02:30.581Z,3.10
2022-08-02T06:03:29.977Z,3.10
2022-08-02T06:04:29.974Z,3.10
2022-08-02T06:05:29.975Z,3.20
2022-08-02T06:06:29.969Z,3.00
2022-08-02T06:07:29.969Z,3.00
2022-08-02T06:08:29.967Z,3.00
2022-08-02T06:09:29.965Z,3.40
2022-08-02T06:10:29.968Z,3.20
2022-08-02T06:11:29.962Z,3.10
2022-08-02T06:12:29.959Z,3.20
2022-08-02T06:13:29.958Z,3.40
2022-08-02T06:14:30.559Z,3.20
2022-08-02T06:15:29.956Z,3.10
2022-08-02T06:16:32.511Z,3.10
2022-08-02T06:17:29.952Z,3.70
2022-08-02T06:18:29.949Z,3.10
2022-08-02T06:19:29.950Z,3.20
2022-08-02T06:20:29.959Z,3.40
2022-08-02T06:22:34.891Z,3.60
2022-08-02T06:22:37.679Z,3.50
2022-08-02T06:23:29.943Z,3.10
2022-08-02T06:24:29.940Z,3.30
2022-08-02T06:25:51.080Z,3.00
2022-08-02T06:26:29.936Z,3.10
2022-08-02T06:27:29.939Z,3.20
2022-08-02T06:28:29.930Z,3.10
2022-08-02T06:29:29.936Z,2.80
2022-08-02T06:30:29.928Z,3.10
2022-08-02T06:31:29.932Z,3.40
2022-08-02T06:32:29.924Z,3.20
2022-08-02T06:33:29.926Z,3.30
2022-08-02T06:34:29.920Z,3.10
2022-08-02T06:35:29.922Z,2.80
2022-08-02T06:36:29.920Z,2.80
2022-08-02T06:37:29.918Z,3.30
2022-08-02T06:38:29.913Z,3.70
2022-08-02T06:39:29.916Z,3.40
2022-08-02T06:40:29.910Z,3.20
2022-08-02T06:41:29.912Z,3.60
2022-08-02T06:42:29.907Z,3.10
2022-08-02T06:44:49.921Z,4.00
2022-08-02T06:45:29.904Z,3.60
2022-08-02T06:46:37.700Z,3.70
2022-08-02T06:47:29.901Z,3.80
2022-08-02T06:48:29.899Z,3.60
2022-08-02T06:49:51.940Z,3.50
2022-08-02T06:50:29.896Z,3.20
2022-08-02T06:51:29.893Z,3.30
2022-08-02T06:52:30.609Z,3.00
2022-08-02T06:53:29.887Z,2.70
2022-08-02T06:54:29.888Z,3.50
2022-08-02T06:55:29.884Z,3.20
2022-08-02T06:56:29.884Z,3.30
2022-08-02T06:57:29.886Z,3.10
2022-08-02T06:58:29.881Z,3.00
2022-08-02T06:59:29.875Z,3.30
2022-08-02T07:00:29.876Z,3.40
2022-08-02T07:01:38.659Z,3.40
2022-08-02T07:02:29.871Z,3.80
2022-08-02T07:03:29.867Z,3.30
2022-08-02T07:04:29.866Z,3.70
2022-08-02T07:05:29.862Z,3.30
2022-08-02T07:06:29.861Z,3.60
2022-08-02T07:07:29.859Z,3.60
2022-08-02T07:08:29.859Z,3.60
2022-08-02T07:09:29.855Z,3.20
2022-08-02T07:10:29.858Z,3.70
2022-08-02T07:11:29.849Z,3.60
2022-08-02T07:12:29.866Z,3.30
2022-08-02T07:13:29.846Z,3.10
2022-08-02T07:14:29.846Z,3.30
2022-08-02T07:15:29.842Z,3.60
2022-08-02T07:16:29.842Z,3.60
2022-08-02T07:17:29.837Z,3.70
2022-08-02T07:18:29.839Z,2.90
2022-08-02T07:19:37.743Z,3.40
2022-08-02T07:20:29.836Z,3.10
2022-08-02T07:21:45.829Z,3.10
2022-08-02T07:22:29.830Z,2.90
2022-08-02T07:23:29.827Z,3.40
2022-08-02T07:24:29.927Z,3.00
2022-08-02T07:26:02.340Z,3.00
2022-08-02T07:26:29.822Z,3.10
2022-08-02T07:27:29.820Z,3.00
2022-08-02T07:28:29.818Z,3.20
2022-08-02T07:29:33.596Z,2.80
2022-08-02T07:30:29.815Z,2.60
2022-08-02T07:31:29.812Z,3.00
2022-08-02T07:32:29.816Z,3.20
2022-08-02T07:33:38.931Z,3.00
2022-08-02T07:34:29.807Z,3.10
2022-08-02T07:35:29.804Z,3.10
2022-08-02T07:36:29.808Z,3.60
2022-08-02T07:37:53.472Z,3.90
2022-08-02T07:38:29.801Z,3.90
2022-08-02T07:39:29.797Z,3.90
2022-08-02T07:40:29.810Z,3.20
2022-08-02T07:41:29.792Z,2.80
2022-08-02T07:42:29.793Z,3.40
2022-08-02T07:43:29.791Z,2.90
2022-08-02T07:44:29.792Z,3.20
2022-08-02T07:45:29.785Z,3.40
2022-08-02T07:46:29.784Z,3.20
2022-08-02T07:47:29.782Z,3.30
2022-08-02T07:48:29.780Z,3.60
2022-08-02T07:49:29.886Z,2.90
2022-08-02T07:50:29.778Z,3.20
2022-08-02T07:51:29.771Z,2.60
2022-08-02T07:52:29.973Z,2.60
2022-08-02T07:53:50.260Z,2.50
2022-08-02T07:54:29.770Z,2.80
2022-08-02T07:55:39.074Z,2.70
2022-08-02T07:56:29.764Z,3.20
2022-08-02T07:57:29.761Z,2.70
2022-08-02T07:58:29.760Z,2.40
2022-08-02T07:59:29.756Z,2.30
2022-08-02T08:00:29.756Z,2.90
2022-08-02T08:01:29.791Z,2.40
2022-08-02T08:02:29.754Z,2.70
2022-08-02T08:03:29.751Z,2.10
2022-08-02T08:04:29.754Z,2.20
2022-08-02T08:05:29.745Z,2.50
2022-08-02T08:06:29.745Z,2.60
2022-08-02T08:07:29.741Z,2.60
2022-08-02T08:08:29.743Z,2.70
2022-08-02T08:09:29.740Z,2.70
2022-08-02T08:10:29.740Z,2.20
2022-08-02T08:11:29.736Z,2.30
2022-08-02T08:12:29.738Z,2.20
2022-08-02T08:13:29.733Z,2.20
2022-08-02T08:14:29.735Z,2.40
2022-08-02T08:15:29.731Z,2.30
2022-08-02T08:16:29.731Z,2.20
2022-08-02T08:17:29.728Z,2.10
2022-08-02T08:18:29.728Z,2.50
2022-08-02T08:19:49.961Z,2.10
2022-08-02T08:20:29.726Z,2.20
2022-08-02T08:21:29.721Z,2.00
2022-08-02T08:22:29.722Z,2.30
2022-08-02T08:23:29.720Z,2.50
2022-08-02T08:24:29.721Z,2.50
2022-08-02T08:25:29.717Z,2.20
2022-08-02T08:26:29.719Z,2.40
2022-08-02T08:27:29.716Z,2.30
2022-08-02T08:28:29.718Z,2.30
2022-08-02T08:29:29.713Z,2.20
2022-08-02T08:30:29.713Z,2.20
2022-08-02T08:31:29.712Z,2.40
2022-08-02T08:32:29.713Z,2.50
2022-08-02T08:33:29.711Z,2.10
2022-08-02T08:34:29.711Z,1.60
2022-08-02T08:35:29.706Z,2.00
2022-08-02T08:36:29.710Z,2.00
2022-08-02T08:37:29.706Z,1.90
2022-08-02T08:38:29.706Z,1.90
2022-08-02T08:39:29.705Z,2.10
2022-08-02T08:40:29.721Z,2.10
2022-08-02T08:41:30.128Z,2.00
2022-08-02T08:42:29.705Z,2.10
2022-08-02T08:43:29.705Z,2.10
2022-08-02T08:44:29.707Z,2.20
2022-08-02T08:45:29.701Z,2.20
2022-08-02T08:46:29.703Z,2.10
2022-08-02T08:47:33.460Z,1.90
2022-08-02T08:48:30.948Z,2.10
2022-08-02T08:49:29.728Z,2.10
2022-08-02T08:50:29.702Z,2.50
2022-08-02T08:51:29.698Z,2.20
2022-08-02T08:52:29.700Z,1.90
2022-08-02T08:53:36.931Z,2.00
2022-08-02T08:54:29.700Z,2.20
2022-08-02T08:55:29.698Z,2.10
2022-08-02T08:56:29.700Z,2.20
2022-08-02T08:57:29.701Z,2.20
2022-08-02T08:58:29.701Z,2.10
2022-08-02T08:59:29.696Z,2.40
2022-08-02T09:00:29.699Z,2.30
2022-08-02T09:01:49.830Z,2.10
2022-08-02T09:02:29.975Z,2.00
2022-08-02T09:03:33.802Z,1.90
2022-08-02T09:04:29.698Z,2.20
2022-08-02T09:05:29.700Z,2.40
2022-08-02T09:06:29.698Z,2.30
2022-08-02T09:07:29.702Z,2.30
2022-08-02T09:08:29.699Z,2.20
2022-08-02T09:09:29.700Z,2.40
2022-08-02T09:10:29.698Z,1.80
2022-08-02T09:11:29.702Z,2.00
2022-08-02T09:12:29.698Z,2.00
2022-08-02T09:13:37.561Z,2.20
2022-08-02T09:14:29.698Z,2.40
2022-08-02T09:15:29.701Z,2.50
2022-08-02T09:16:29.700Z,2.60
2022-08-02T09:17:29.702Z,2.10
2022-08-02T09:18:29.700Z,2.20
2022-08-02T09:19:29.703Z,2.20
2022-08-02T09:20:30.902Z,2.20
2022-08-02T09:21:29.703Z,2.20
2022-08-02T09:22:29.701Z,2.30
2022-08-02T09:23:29.705Z,2.50
2022-08-02T09:24:30.936Z,2.20
2022-08-02T09:25:29.707Z,1.90
2022-08-02T09:26:29.707Z,2.30
2022-08-02T09:27:29.707Z,2.40
2022-08-02T09:28:29.705Z,2.10
2022-08-02T09:29:29.710Z,2.50
2022-08-02T09:30:29.706Z,2.20
2022-08-02T09:31:29.711Z,2.10
2022-08-02T09:32:29.708Z,2.00
2022-08-02T09:33:29.708Z,2.40
2022-08-02T09:34:29.708Z,2.10
2022-08-02T09:35:29.709Z,2.30
2022-08-02T09:36:29.709Z,2.10
2022-08-02T09:37:29.715Z,2.20
2022-08-02T09:38:29.709Z,1.80
2022-08-02T09:40:29.712Z,1.90
2022-08-02T09:41:29.708Z,2.10
2022-08-02T09:42:30.083Z,2.00
2022-08-02T09:43:29.712Z,1.80
2022-08-02T09:44:29.713Z,2.00
2022-08-02T09:45:29.711Z,2.50
2022-08-02T09:46:29.714Z,2.30
2022-08-02T09:47:31.056Z,2.50
2022-08-02T09:48:29.715Z,2.10
2022-08-02T09:49:29.793Z,2.20
2022-08-02T09:50:29.716Z,2.10
2022-08-02T09:51:29.715Z,2.10
2022-08-02T09:52:43.374Z,2.20
2022-08-02T09:53:29.717Z,1.80
2022-08-02T09:54:29.719Z,2.40
2022-08-02T09:55:30.039Z,2.20
2022-08-02T09:58:29.722Z,2.10
2022-08-02T09:59:29.723Z,2.40
2022-08-02T10:00:50.721Z,2.20
2022-08-02T10:01:36.895Z,2.30
2022-08-02T10:02:29.842Z,2.20
2022-08-02T10:03:37.109Z,2.30
2022-08-02T10:04:29.726Z,2.00
2022-08-02T10:05:29.723Z,2.40
2022-08-02T10:06:29.726Z,2.10
2022-08-02T10:07:29.725Z,2.40
2022-08-02T10:08:29.778Z,2.50
2022-08-02T10:09:29.732Z,1.80
2022-08-02T10:10:29.731Z,2.30
2022-08-02T10:11:29.730Z,2.00
2022-08-02T10:12:29.734Z,2.10
2022-08-02T10:13:29.731Z,2.20
2022-08-02T10:14:29.731Z,2.30
2022-08-02T10:15:29.731Z,2.30
2022-08-02T10:16:29.734Z,2.20
2022-08-02T10:17:29.733Z,1.90
2022-08-02T10:18:38.901Z,1.80
2022-08-02T10:20:00.976Z,1.90
2022-08-02T10:20:29.740Z,1.70
2022-08-02T10:21:29.736Z,1.80
2022-08-02T10:22:29.741Z,2.30
2022-08-02T10:23:29.747Z,1.90
2022-08-02T10:24:29.745Z,2.00
2022-08-02T10:25:29.754Z,2.30
2022-08-02T10:26:29.746Z,1.80
2022-08-02T10:27:38.899Z,1.90
2022-08-02T10:28:29.749Z,2.40
2022-08-02T10:29:29.746Z,1.90
2022-08-02T10:30:29.749Z,1.90
2022-08-02T10:31:29.749Z,2.00
2022-08-02T10:32:29.754Z,1.80
2022-08-02T10:33:29.750Z,1.90
2022-08-02T10:34:31.829Z,2.10
2022-08-02T10:35:29.753Z,1.70
2022-08-02T10:36:29.758Z,2.10
2022-08-02T10:37:29.755Z,1.80
2022-08-02T10:38:29.761Z,1.80
2022-08-02T10:39:29.760Z,1.70
2022-08-02T10:40:29.764Z,1.90
2022-08-02T10:41:29.762Z,1.80
2022-08-02T10:42:29.766Z,2.00
2022-08-02T10:43:29.766Z,2.20
2022-08-02T10:44:29.770Z,1.70
2022-08-02T10:45:29.784Z,1.70
2022-08-02T10:46:29.773Z,2.00
2022-08-02T10:47:29.772Z,1.70
2022-08-02T10:48:29.776Z,2.00
2022-08-02T10:49:39.662Z,1.70
2022-08-02T10:50:29.779Z,1.40
2022-08-02T10:51:33.092Z,1.70
2022-08-02T10:52:29.784Z,1.80
2022-08-02T10:53:29.783Z,1.70
2022-08-02T10:54:29.786Z,1.40
2022-08-02T10:55:29.785Z,1.60
2022-08-02T10:56:29.792Z,1.70
2022-08-02T10:57:29.788Z,1.70
2022-08-02T10:58:30.061Z,1.30
2022-08-02T10:59:29.794Z,1.60
2022-08-02T11:00:29.795Z,1.60
2022-08-02T11:01:38.916Z,1.30
2022-08-02T11:02:29.798Z,1.30
2022-08-02T11:03:29.812Z,1.30
2022-08-02T11:04:29.803Z,1.10
2022-08-02T11:05:42.298Z,1.50
2022-08-02T11:06:29.808Z,1.20
2022-08-02T11:07:29.806Z,1.20
2022-08-02T11:08:29.811Z,1.20
2022-08-02T11:09:32.954Z,1.70
2022-08-02T11:10:29.815Z,1.30
2022-08-02T11:11:53.823Z,1.80
2022-08-02T11:12:29.818Z,1.50
2022-08-02T11:13:29.820Z,1.20
2022-08-02T11:14:29.822Z,1.40
2022-08-02T11:15:29.822Z,1.40
2022-08-02T11:16:29.828Z,1.20
2022-08-02T11:17:38.761Z,1.40
2022-08-02T11:18:29.831Z,1.50
2022-08-02T11:19:29.830Z,1.60
2022-08-02T11:20:29.835Z,1.60
2022-08-02T11:21:29.836Z,1.50
2022-08-02T11:22:29.840Z,1.50
2022-08-02T11:23:44.547Z,1.40
2022-08-02T11:24:29.853Z,1.20
2022-08-02T11:25:54.371Z,1.30
2022-08-02T11:26:29.849Z,1.40
2022-08-02T11:27:29.851Z,1.30
2022-08-02T11:28:29.856Z,1.30
2022-08-02T11:29:29.854Z,1.20
2022-08-02T11:30:29.858Z,1.30
2022-08-02T11:31:29.866Z,1.50
2022-08-02T11:32:30.745Z,1.50
2022-08-02T11:33:29.863Z,1.30
2022-08-02T11:34:37.628Z,1.30
2022-08-02T11:35:29.869Z,1.20
2022-08-02T11:36:29.874Z,1.30
2022-08-02T11:37:29.874Z,1.30
2022-08-02T11:38:29.880Z,1.20
2022-08-02T11:39:29.882Z,1.30
2022-08-02T11:40:32.503Z,1.30
2022-08-02T11:41:46.862Z,1.40
2022-08-02T11:42:29.886Z,1.60
2022-08-02T11:43:29.890Z,1.50
2022-08-02T11:44:29.895Z,1.90
2022-08-02T11:45:30.238Z,1.40
2022-08-02T11:46:29.897Z,1.40
2022-08-02T11:47:29.897Z,1.50
2022-08-02T11:48:29.902Z,1.40
2022-08-02T11:49:29.964Z,1.60
2022-08-02T11:50:30.714Z,1.50
2022-08-02T11:51:29.907Z,1.30
2022-08-02T11:52:29.911Z,1.40
2022-08-02T11:53:29.912Z,1.30
2022-08-02T11:54:29.918Z,1.30
2022-08-02T11:55:29.916Z,1.50
2022-08-02T11:56:29.923Z,1.50
2022-08-02T11:57:29.922Z,1.40
2022-08-02T11:58:29.927Z,1.70
2022-08-02T11:59:29.933Z,1.50
2022-08-02T12:00:30.520Z,1.40
2022-08-02T12:01:29.934Z,1.50
2022-08-02T12:02:29.944Z,1.40
2022-08-02T12:03:29.998Z,1.30
2022-08-02T12:04:29.944Z,1.40
2022-08-02T12:06:03.915Z,1.40
2022-08-02T12:06:29.947Z,1.30
2022-08-02T12:07:34.305Z,1.40
2022-08-02T12:08:29.953Z,1.60
2022-08-02T12:09:29.954Z,1.30
2022-08-02T12:10:29.958Z,1.50
2022-08-02T12:11:38.880Z,1.40
2022-08-02T12:12:29.965Z,1.30
2022-08-02T12:13:29.964Z,1.30
2022-08-02T12:14:29.970Z,1.40
2022-08-02T12:15:29.970Z,1.20
2022-08-02T12:16:29.978Z,1.30
2022-08-02T12:17:29.979Z,1.20
2022-08-02T12:18:29.980Z,1.40
2022-08-02T12:19:29.982Z,1.40
2022-08-02T12:20:29.988Z,1.30
2022-08-02T12:21:29.987Z,1.40
2022-08-02T12:22:30.043Z,1.50
2022-08-02T12:23:29.995Z,1.50
2022-08-02T12:24:30.013Z,1.20
2022-08-02T12:25:34.568Z,1.30
2022-08-02T12:26:30.119Z,1.40
2022-08-02T12:27:30.008Z,1.10
2022-08-02T12:28:30.013Z,1.40
2022-08-02T12:29:58.471Z,1.30
2022-08-02T12:30:30.021Z,1.20
2022-08-02T12:31:30.020Z,1.20
2022-08-02T12:32:30.027Z,1.40
2022-08-02T12:33:30.027Z,1.40
2022-08-02T12:34:32.324Z,1.10
2022-08-02T12:35:30.034Z,1.40
2022-08-02T12:36:30.062Z,1.10
2022-08-02T12:37:30.042Z,1.10
2022-08-02T12:38:30.046Z,1.30
2022-08-02T12:39:31.497Z,1.40
2022-08-02T12:40:30.053Z,1.40
2022-08-02T12:41:31.080Z,1.40
2022-08-02T12:42:30.063Z,1.30
2022-08-02T12:43:30.060Z,1.40
2022-08-02T12:44:30.065Z,1.20
2022-08-02T12:45:39.290Z,1.40
2022-08-02T12:46:30.074Z,1.40
2022-08-02T12:47:35.591Z,1.30
2022-08-02T12:48:36.673Z,1.30
2022-08-02T12:49:30.125Z,1.20
2022-08-02T12:50:30.092Z,1.20
2022-08-02T12:51:57.705Z,1.10
2022-08-02T12:52:30.094Z,1.40
2022-08-02T12:53:30.095Z,1.40
2022-08-02T12:54:30.797Z,1.20
2022-08-02T12:55:59.335Z,1.20
2022-08-02T12:56:30.112Z,1.40
2022-08-02T12:57:30.109Z,1.20
2022-08-02T12:58:30.126Z,1.30
2022-08-02T12:59:30.118Z,1.30
2022-08-02T13:00:30.131Z,1.20
2022-08-02T13:01:30.201Z,1.40
2022-08-02T13:02:30.128Z,1.40
2022-08-02T13:04:10.774Z,1.30
2022-08-02T13:04:30.135Z,1.40
2022-08-02T13:05:30.137Z,1.40
2022-08-02T13:06:39.821Z,1.40
2022-08-02T13:07:30.143Z,1.60
2022-08-02T13:08:30.149Z,1.30
2022-08-02T13:09:30.149Z,1.70
2022-08-02T13:10:30.155Z,1.60
2022-08-02T13:11:30.156Z,1.60
2022-08-02T13:12:30.161Z,1.30
2022-08-02T13:13:30.162Z,1.40
2022-08-02T13:14:30.168Z,1.20
2022-08-02T13:15:48.933Z,1.40
2022-08-02T13:16:31.106Z,1.30
2022-08-02T13:17:30.177Z,1.30
2022-08-02T13:18:30.386Z,1.40
2022-08-02T13:19:31.255Z,1.40
2022-08-02T13:20:30.189Z,1.70
2022-08-02T13:21:41.524Z,1.40
2022-08-02T13:22:30.198Z,1.40
2022-08-02T13:23:39.670Z,1.40